Time;durP1;ratioP1;P1;durP2;ratioP2;P2;SDS_P1;SDS_P2;PMS_P1;PMS_P2;Temp;Humidity;BMP_temperature;BMP_pressure;BME280_temperature;BME280_humidity;BME280_pressure;Samples;Min_cycle;Max_cycle;Signal;HPM_P1;HPM_P2
2023/12/24 00:00:56;;;;;;;13.00;5.50;;;;;;;1.15;85.00;98280.48;103327;1253;97712;-67
2023/12/24 00:03:43;;;;;;;12.40;5.30;;;;;;;1.16;84.93;98287.64;103199;1257;138287;-69
2023/12/24 00:06:10;;;;;;;9.00;4.60;;;;;;;1.16;84.71;98286.63;103313;1257;106892;-67
2023/12/24 00:08:38;;;;;;;10.00;4.60;;;;;;;1.15;84.57;98285.26;103319;1255;97897;-68
2023/12/24 00:11:05;;;;;;;12.80;4.50;;;;;;;1.17;84.57;98288.80;103272;1253;107552;-68
2023/12/24 00:13:33;;;;;;;10.00;4.50;;;;;;;1.19;84.37;98287.05;103289;1252;97820;-69
2023/12/24 00:16:00;;;;;;;11.40;4.60;;;;;;;1.22;84.35;98295.86;103225;1257;137615;-69
2023/12/24 00:18:26;;;;;;;7.70;4.00;;;;;;;1.22;83.70;98294.33;103225;1253;106779;-69
2023/12/24 00:20:53;;;;;;;10.40;4.50;;;;;;;1.20;83.35;98296.96;103261;1257;137709;-69
2023/12/24 00:23:20;;;;;;;11.30;4.80;;;;;;;1.15;82.87;98296.23;103263;1257;107927;-69
2023/12/24 00:25:47;;;;;;;8.60;3.80;;;;;;;1.09;82.99;98302.89;103343;1253;97787;-68
2023/12/24 00:28:14;;;;;;;12.90;4.10;;;;;;;1.05;83.04;98308.10;103146;1253;138559;-68
2023/12/24 00:30:40;;;;;;;11.00;3.90;;;;;;;1.02;83.02;98322.40;103238;1257;106758;-68
2023/12/24 00:33:07;;;;;;;10.00;4.30;;;;;;;0.98;82.92;98330.21;103228;1257;138577;-69
2023/12/24 00:35:35;;;;;;;7.70;3.50;;;;;;;0.95;82.86;98337.98;103300;1253;107752;-69
2023/12/24 00:38:02;;;;;;;8.70;4.00;;;;;;;0.91;82.85;98335.19;103254;1257;97790;-68
2023/12/24 00:40:29;;;;;;;7.00;4.10;;;;;;;0.90;83.03;98342.21;103085;1253;138447;-69
2023/12/24 00:42:56;;;;;;;9.20;3.20;;;;;;;0.89;82.96;98341.70;103140;1253;106739;-68
2023/12/24 00:45:23;;;;;;;8.00;3.70;;;;;;;0.87;82.98;98348.42;103252;1253;137779;-68
2023/12/24 00:47:49;;;;;;;7.00;3.40;;;;;;;0.85;83.06;98348.81;102497;1253;1002681;-68
2023/12/24 00:50:17;;;;;;;7.70;3.70;;;;;;;0.82;82.79;98352.30;103350;1257;98299;-69
2023/12/24 00:52:43;;;;;;;8.40;3.70;;;;;;;0.77;82.75;98355.85;104396;1253;138501;-69
2023/12/24 00:55:12;;;;;;;10.60;4.30;;;;;;;0.72;82.74;98359.04;104630;1255;108032;-68
2023/12/24 00:57:39;;;;;;;9.50;3.70;;;;;;;0.68;82.85;98365.11;104638;1253;137632;-68
2023/12/24 01:00:07;;;;;;;9.20;3.50;;;;;;;0.67;82.94;98368.23;104659;1253;107539;-69
2023/12/24 01:02:35;;;;;;;6.70;3.30;;;;;;;0.66;82.90;98366.54;104763;1253;95858;-68
2023/12/24 01:05:02;;;;;;;9.30;3.50;;;;;;;0.62;82.82;98374.66;104813;1252;111426;-69
2023/12/24 01:07:29;;;;;;;6.80;3.10;;;;;;;0.63;82.88;98382.52;104749;1253;107136;-68
2023/12/24 01:09:56;;;;;;;7.70;3.10;;;;;;;0.64;82.69;98383.52;104637;1253;138621;-69
2023/12/24 01:12:22;;;;;;;8.10;3.10;;;;;;;0.66;82.62;98396.64;104780;1253;107476;-69
2023/12/24 01:14:50;;;;;;;10.20;3.30;;;;;;;0.68;82.46;98399.85;104650;1253;138388;-69
2023/12/24 01:17:17;;;;;;;8.70;3.00;;;;;;;0.69;82.27;98398.77;104817;1253;110588;-69
2023/12/24 01:19:45;;;;;;;6.90;3.00;;;;;;;0.71;82.06;98399.92;104756;1253;108572;-69
2023/12/24 01:22:12;;;;;;;6.10;3.20;;;;;;;0.74;81.91;98406.05;104032;1253;138682;-68
2023/12/24 01:24:39;;;;;;;8.60;3.20;;;;;;;0.77;81.86;98408.21;103200;1253;107777;-68
2023/12/24 01:27:06;;;;;;;6.80;3.30;;;;;;;0.80;81.75;98410.02;103189;1258;138797;-68
2023/12/24 01:29:33;;;;;;;8.40;3.10;;;;;;;0.81;81.58;98414.42;103325;1253;109876;-68
2023/12/24 01:32:01;;;;;;;6.20;2.90;;;;;;;0.82;81.39;98410.13;103252;1253;107078;-68
2023/12/24 01:34:27;;;;;;;4.90;3.00;;;;;;;0.81;81.17;98416.82;103211;1253;138016;-68
2023/12/24 01:36:54;;;;;;;10.10;3.30;;;;;;;0.79;81.12;98414.64;103226;1253;107415;-68
2023/12/24 01:39:21;;;;;;;7.20;2.70;;;;;;;0.76;81.07;98419.52;103119;1253;138980;-68
2023/12/24 01:41:48;;;;;;;5.80;2.60;;;;;;;0.72;80.92;98422.85;103210;1253;111146;-67
2023/12/24 01:44:15;;;;;;;6.10;2.70;;;;;;;0.64;80.65;98423.18;103270;1259;107637;-68
2023/12/24 01:46:42;;;;;;;5.90;2.70;;;;;;;0.58;80.69;98426.06;103164;1253;138761;-68
2023/12/24 01:49:10;;;;;;;5.10;2.70;;;;;;;0.54;80.79;98428.69;103341;1253;106918;-69
2023/12/24 01:51:38;;;;;;;6.30;2.60;;;;;;;0.55;80.65;98428.35;103185;1259;138008;-69
2023/12/24 01:54:05;;;;;;;5.80;2.80;;;;;;;0.52;80.57;98438.30;103176;1253;110534;-68
2023/12/24 01:56:33;;;;;;;10.10;3.00;;;;;;;0.49;80.71;98445.90;102475;1253;1003409;-68
2023/12/24 01:59:00;;;;;;;4.80;2.70;;;;;;;0.45;80.52;98445.65;103222;1253;137573;-68
2023/12/24 02:01:28;;;;;;;8.10;3.10;;;;;;;0.40;80.49;98448.99;102821;1253;1002573;-68
2023/12/24 02:03:56;;;;;;;7.10;3.40;;;;;;;0.34;80.45;98450.83;103239;1253;138199;-67
2023/12/24 02:06:25;;;;;;;8.40;3.50;;;;;;;0.25;80.56;98450.84;103397;1253;110331;-67
2023/12/24 02:08:52;;;;;;;5.80;2.90;;;;;;;0.16;80.62;98453.73;103099;1256;137411;-68
2023/12/24 02:11:20;;;;;;;6.40;2.70;;;;;;;0.09;80.67;98454.05;103329;1257;98306;-68
2023/12/24 02:13:48;;;;;;;5.20;2.60;;;;;;;0.05;80.76;98459.94;103233;1257;107055;-68
2023/12/24 02:16:19;;;;;;;5.80;3.20;;;;;;;0.01;80.95;98465.83;103152;1256;138276;-68
2023/12/24 02:18:46;;;;;;;5.00;2.30;;;;;;;0.00;80.98;98467.88;103363;1253;110530;-70
2023/12/24 02:21:13;;;;;;;5.60;2.70;;;;;;;0.02;81.13;98467.86;103112;1258;139309;-67
2023/12/24 02:23:40;;;;;;;6.40;3.00;;;;;;;0.01;81.13;98469.41;104306;1253;97174;-70
2023/12/24 02:26:14;;;;;;;6.10;2.90;;;;;;;0.02;81.14;98473.84;103721;1253;107812;-68
2023/12/24 02:28:46;;;;;;;5.60;3.00;;;;;;;0.04;81.26;98476.38;102427;1259;1003321;-68
2023/12/24 02:31:15;;;;;;;7.20;3.20;;;;;;;0.06;81.39;98479.41;104015;1253;111155;-68
2023/12/24 02:33:44;;;;;;;6.60;3.10;;;;;;;0.07;81.29;98480.57;104086;1253;137875;-68
2023/12/24 02:36:12;;;;;;;6.70;3.00;;;;;;;0.05;81.28;98485.56;104604;1253;96033;-68
2023/12/24 02:38:39;;;;;;;5.60;3.10;;;;;;;0.02;81.23;98492.13;104783;1253;107381;-68
2023/12/24 02:41:06;;;;;;;6.20;3.10;;;;;;;-0.02;81.24;98494.20;104025;1252;1002471;-67
2023/12/24 02:43:34;;;;;;;7.30;2.90;;;;;;;-0.04;81.29;98498.17;103403;1253;110613;-68
2023/12/24 02:46:01;;;;;;;6.30;2.90;;;;;;;-0.05;81.27;98500.07;103526;1253;138126;-68
2023/12/24 02:48:28;;;;;;;4.60;2.90;;;;;;;-0.06;81.34;98499.06;103299;1252;97702;-68
2023/12/24 02:50:55;;;;;;;4.90;2.70;;;;;;;-0.08;81.45;98499.79;104283;1257;138061;-68
2023/12/24 02:53:22;;;;;;;4.90;2.60;;;;;;;-0.06;81.50;98501.81;103511;1253;97825;-68
2023/12/24 02:55:49;;;;;;;6.50;3.00;;;;;;;-0.06;81.47;98506.41;103390;1259;111267;-69
2023/12/24 02:58:16;;;;;;;5.40;2.70;;;;;;;-0.06;81.59;98508.29;103100;1258;139621;-69
2023/12/24 03:01:18;;;;;;;5.50;2.80;;;;;;;-0.06;81.53;98514.79;103542;1253;97689;31
2023/12/24 03:03:45;;;;;;;5.40;2.60;;;;;;;-0.07;81.63;98511.90;102219;1264;138327;-68
2023/12/24 03:06:12;;;;;;;6.40;2.90;;;;;;;-0.06;81.92;98513.59;101809;1264;1003068;-66
2023/12/24 03:08:39;;;;;;;6.60;3.10;;;;;;;-0.05;81.69;98514.77;102741;1261;110579;-67
2023/12/24 03:11:06;;;;;;;6.70;3.60;;;;;;;-0.06;81.95;98524.52;102691;1261;107060;-68
2023/12/24 03:13:33;;;;;;;8.30;3.50;;;;;;;-0.07;81.70;98522.84;102770;1260;97927;-68
2023/12/24 03:16:00;;;;;;;6.60;3.70;;;;;;;-0.11;81.93;98521.73;102669;1260;138779;-68
2023/12/24 03:18:26;;;;;;;6.70;3.60;;;;;;;-0.13;81.84;98524.66;102659;1261;97882;-69
2023/12/24 03:20:54;;;;;;;7.60;3.60;;;;;;;-0.18;82.02;98524.91;102667;1261;138592;-68
2023/12/24 03:23:21;;;;;;;6.20;3.40;;;;;;;-0.25;82.10;98519.89;102764;1258;107195;-68
2023/12/24 03:25:48;;;;;;;9.10;3.70;;;;;;;-0.32;82.21;98526.69;101917;1264;1003750;-68
2023/12/24 03:28:14;;;;;;;4.80;3.10;;;;;;;-0.36;82.52;98531.69;102624;1262;139053;-69
2023/12/24 03:30:41;;;;;;;8.50;3.60;;;;;;;-0.39;82.79;98534.11;102674;1264;97786;-68
2023/12/24 03:33:08;;;;;;;7.60;3.30;;;;;;;-0.41;82.77;98537.23;102604;1261;138929;-68
2023/12/24 03:35:35;;;;;;;4.20;2.80;;;;;;;-0.43;83.08;98534.70;102740;1264;106472;-67
2023/12/24 03:38:03;;;;;;;9.00;3.30;;;;;;;-0.41;83.32;98543.04;102748;1261;97717;-68
2023/12/24 03:40:30;;;;;;;8.70;3.40;;;;;;;-0.40;83.40;98541.82;102596;1264;137837;-68
2023/12/24 03:42:57;;;;;;;7.70;3.20;;;;;;;-0.40;83.52;98552.23;102737;1264;97914;-67
2023/12/24 03:45:24;;;;;;;6.10;3.30;;;;;;;-0.43;83.51;98555.19;102595;1261;137578;-67
2023/12/24 03:47:50;;;;;;;8.90;3.50;;;;;;;-0.46;83.67;98559.50;102653;1260;107063;-67
2023/12/24 03:50:18;;;;;;;8.60;3.50;;;;;;;-0.47;83.78;98568.07;102683;1264;98224;-68
2023/12/24 03:52:45;;;;;;;6.80;3.40;;;;;;;-0.54;83.90;98574.98;102612;1263;137868;-69
2023/12/24 03:55:12;;;;;;;9.10;3.30;;;;;;;-0.59;84.09;98577.79;102685;1262;97811;-68
2023/12/24 03:57:39;;;;;;;6.80;3.40;;;;;;;-0.64;84.37;98583.31;102615;1261;138112;-67
2023/12/24 04:00:08;;;;;;;7.30;3.00;;;;;;;-0.66;84.74;98584.20;102613;1267;107524;-68
2023/12/24 04:02:35;;;;;;;9.60;3.80;;;;;;;-0.68;84.84;98586.62;102826;1266;97834;-68
2023/12/24 04:05:02;;;;;;;8.90;3.40;;;;;;;-0.71;84.81;98589.23;102609;1262;137959;-68
2023/12/24 04:07:29;;;;;;;7.80;3.60;;;;;;;-0.75;85.06;98589.42;102740;1262;97825;-68
2023/12/24 04:09:56;;;;;;;7.20;3.40;;;;;;;-0.74;85.19;98589.75;102563;1264;138287;-68
2023/12/24 04:12:23;;;;;;;7.70;3.20;;;;;;;-0.76;85.42;98584.50;102695;1261;106717;-68
2023/12/24 04:14:50;;;;;;;9.40;4.00;;;;;;;-0.76;85.68;98586.20;101834;1261;1003001;-68
2023/12/24 04:17:16;;;;;;;7.10;3.30;;;;;;;-0.76;85.64;98585.69;102685;1261;106789;-68
2023/12/24 04:19:44;;;;;;;7.30;3.20;;;;;;;-0.77;86.01;98584.67;102641;1264;97808;-68
2023/12/24 04:22:10;;;;;;;9.40;4.00;;;;;;;-0.77;85.99;98586.23;102542;1265;138863;-68
2023/12/24 04:24:37;;;;;;;6.60;2.90;;;;;;;-0.74;86.14;98579.68;102608;1266;107034;-68
2023/12/24 04:27:05;;;;;;;7.60;3.00;;;;;;;-0.74;86.08;98592.48;102673;1260;138568;-68
2023/12/24 04:29:32;;;;;;;6.00;3.30;;;;;;;-0.75;86.15;98590.12;102675;1261;107721;-68
2023/12/24 04:31:59;;;;;;;7.10;2.90;;;;;;;-0.76;86.19;98592.70;102670;1261;98118;-69
2023/12/24 04:34:26;;;;;;;10.30;2.90;;;;;;;-0.76;86.15;98593.54;102734;1261;138097;-67
2023/12/24 04:36:53;;;;;;;8.10;3.30;;;;;;;-0.75;86.38;98595.06;102646;1265;107834;-67
2023/12/24 04:39:20;;;;;;;7.30;3.50;;;;;;;-0.74;86.35;98597.61;102601;1261;138862;-68
2023/12/24 04:41:47;;;;;;;6.50;2.70;;;;;;;-0.74;86.36;98599.65;102671;1261;106953;-67
2023/12/24 04:44:15;;;;;;;7.00;2.90;;;;;;;-0.75;86.29;98597.79;102654;1261;98004;-68
2023/12/24 04:46:46;;;;;;;8.20;3.30;;;;;;;-0.75;86.34;98596.42;102554;1261;138090;-68
2023/12/24 04:49:13;;;;;;;8.10;3.20;;;;;;;-0.73;86.47;98596.58;102729;1261;106786;-68
2023/12/24 04:51:41;;;;;;;7.60;2.80;;;;;;;-0.72;86.42;98603.74;102638;1260;140047;-68
2023/12/24 04:54:08;;;;;;;10.20;2.90;;;;;;;-0.71;86.44;98606.64;102667;1266;107008;-67
2023/12/24 04:56:35;;;;;;;6.00;2.80;;;;;;;-0.70;86.41;98606.80;102710;1261;97878;-68
2023/12/24 04:59:02;;;;;;;6.70;2.70;;;;;;;-0.69;86.51;98608.48;102627;1264;139066;-68
2023/12/24 05:01:30;;;;;;;5.70;2.80;;;;;;;-0.66;86.53;98599.22;102633;1262;107847;-68
2023/12/24 05:03:57;;;;;;;7.30;3.10;;;;;;;-0.64;86.42;98608.23;103282;1261;139250;-68
2023/12/24 05:06:28;;;;;;;6.50;3.10;;;;;;;-0.65;86.52;98607.22;102639;1261;107970;-68
2023/12/24 05:08:54;;;;;;;7.30;2.70;;;;;;;-0.63;86.46;98607.87;102586;1264;139862;-68
2023/12/24 05:11:21;;;;;;;8.80;3.20;;;;;;;-0.61;86.52;98613.31;102697;1262;111807;-68
2023/12/24 05:13:48;;;;;;;7.60;3.00;;;;;;;-0.56;86.77;98617.52;102754;1261;107012;-68
2023/12/24 05:16:15;;;;;;;8.10;3.10;;;;;;;-0.53;86.67;98616.64;102730;1261;138348;-68
2023/12/24 05:18:44;;;;;;;7.50;3.00;;;;;;;-0.50;86.72;98625.30;102725;1262;109381;-68
2023/12/24 05:21:11;;;;;;;5.30;3.30;;;;;;;-0.49;86.58;98631.59;102761;1260;137974;-68
2023/12/24 05:23:37;;;;;;;8.90;3.20;;;;;;;-0.50;86.43;98637.26;103096;1264;110061;-67
2023/12/24 05:26:05;;;;;;;9.40;3.10;;;;;;;-0.50;86.35;98639.81;102798;1264;106784;-67
2023/12/24 05:28:32;;;;;;;7.20;3.00;;;;;;;-0.52;86.37;98643.43;102641;1264;137685;-68
2023/12/24 05:30:59;;;;;;;7.00;3.00;;;;;;;-0.55;86.54;98646.00;102663;1262;107700;-68
2023/12/24 05:33:26;;;;;;;6.60;2.80;;;;;;;-0.58;86.44;98648.10;102567;1261;139101;-68
2023/12/24 05:35:55;;;;;;;7.10;2.90;;;;;;;-0.61;86.50;98650.69;102663;1260;110510;-68
2023/12/24 05:38:22;;;;;;;6.40;2.90;;;;;;;-0.59;86.75;98658.17;102696;1261;106379;-68
2023/12/24 05:40:49;;;;;;;7.10;3.50;;;;;;;-0.59;86.57;98660.23;102557;1261;138290;-68
2023/12/24 05:43:16;;;;;;;6.40;3.00;;;;;;;-0.59;86.95;98655.61;101941;1262;1002563;-68
2023/12/24 05:45:43;;;;;;;6.80;3.10;;;;;;;-0.52;86.99;98663.74;102518;1261;139203;-68
2023/12/24 05:48:10;;;;;;;6.80;3.20;;;;;;;-0.56;86.84;98651.34;102683;1262;109453;-69
2023/12/24 05:50:37;;;;;;;6.90;3.00;;;;;;;-0.54;86.82;98655.23;102639;1261;107199;-68
2023/12/24 05:53:04;;;;;;;8.70;3.50;;;;;;;-0.53;86.83;98657.09;102724;1262;97870;-68
2023/12/24 05:55:31;;;;;;;8.80;3.40;;;;;;;-0.51;87.03;98661.85;102687;1261;107745;-68
2023/12/24 05:57:58;;;;;;;8.70;3.40;;;;;;;-0.49;86.98;98671.54;102589;1261;138278;-68
2023/12/24 06:00:25;;;;;;;9.80;3.20;;;;;;;-0.48;86.95;98671.02;102669;1261;112773;-68
2023/12/24 06:02:52;;;;;;;7.70;3.70;;;;;;;-0.47;86.93;98673.58;102556;1264;138371;-68
2023/12/24 06:05:19;;;;;;;4.90;2.90;;;;;;;-0.47;87.19;98670.33;102628;1266;98398;-68
2023/12/24 06:07:46;;;;;;;8.90;3.20;;;;;;;-0.43;87.03;98675.73;102688;1261;106922;-68
2023/12/24 06:10:14;;;;;;;5.60;2.90;;;;;;;-0.43;86.95;98680.33;102533;1266;138619;-68
2023/12/24 06:12:41;;;;;;;8.30;3.40;;;;;;;-0.40;87.09;98680.13;102702;1261;111316;-68
2023/12/24 06:15:09;;;;;;;6.40;3.20;;;;;;;-0.39;87.12;98682.67;102530;1266;138507;-68
2023/12/24 06:17:36;;;;;;;7.30;3.10;;;;;;;-0.38;87.07;98674.98;102692;1264;98334;-68
2023/12/24 06:20:04;;;;;;;10.60;4.00;;;;;;;-0.38;86.97;98679.42;102681;1261;106786;-68
2023/12/24 06:22:31;;;;;;;8.30;3.40;;;;;;;-0.38;87.13;98682.99;102582;1260;138314;-67
2023/12/24 06:24:58;;;;;;;5.40;3.10;;;;;;;-0.36;87.11;98679.39;102819;1261;110521;-67
2023/12/24 06:27:24;;;;;;;7.90;3.30;;;;;;;-0.34;87.16;98682.63;102511;1261;139404;-66
2023/12/24 06:29:51;;;;;;;7.00;4.00;;;;;;;-0.28;87.18;98683.56;102685;1265;98340;-67
2023/12/24 06:32:18;;;;;;;10.80;3.90;;;;;;;-0.25;87.12;98689.84;102706;1264;108256;-67
2023/12/24 06:34:45;;;;;;;11.50;4.60;;;;;;;-0.22;87.17;98696.45;102558;1266;137724;-67
2023/12/24 06:37:12;;;;;;;8.30;4.60;;;;;;;-0.20;86.97;98699.31;102728;1261;111855;-68
2023/12/24 06:39:40;;;;;;;11.20;5.40;;;;;;;-0.18;87.00;98696.23;102557;1261;138309;-67
2023/12/24 06:42:07;;;;;;;9.50;4.70;;;;;;;-0.16;86.96;98695.18;101922;1261;1003108;-68
2023/12/24 06:44:34;;;;;;;9.80;4.50;;;;;;;-0.13;87.03;98698.56;102690;1266;107196;-67
2023/12/24 06:47:01;;;;;;;9.70;4.20;;;;;;;-0.15;87.04;98698.42;102578;1261;139268;-68
2023/12/24 06:49:27;;;;;;;7.70;4.40;;;;;;;-0.13;87.02;98699.24;102737;1265;110858;-68
2023/12/24 06:51:54;;;;;;;9.40;3.70;;;;;;;-0.11;87.04;98699.39;102583;1264;138185;-68
2023/12/24 06:54:21;;;;;;;9.50;4.20;;;;;;;-0.11;87.05;98700.41;102717;1262;98146;-67
2023/12/24 06:56:48;;;;;;;10.00;4.10;;;;;;;-0.08;87.21;98698.99;102494;1262;138160;-68
2023/12/24 06:59:15;;;;;;;7.50;4.10;;;;;;;-0.04;87.17;98700.81;102618;1264;98661;-68
2023/12/24 07:01:42;;;;;;;7.50;4.10;;;;;;;-0.02;87.17;98706.42;102710;1261;111260;-68
2023/12/24 07:04:09;;;;;;;11.70;4.20;;;;;;;0.01;86.99;98711.17;102542;1262;138176;-68
2023/12/24 07:06:35;;;;;;;10.00;3.70;;;;;;;0.07;87.09;98712.46;102659;1262;97914;-68
2023/12/24 07:09:03;;;;;;;7.70;3.90;;;;;;;0.13;87.24;98710.83;102469;1264;140023;-68
2023/12/24 07:11:29;;;;;;;7.00;3.70;;;;;;;0.16;87.03;98717.44;102663;1265;97834;-68
2023/12/24 07:13:56;;;;;;;9.40;4.40;;;;;;;0.18;86.90;98718.27;102673;1267;111609;-68
2023/12/24 07:16:23;;;;;;;10.80;4.50;;;;;;;0.22;87.03;98719.94;102496;1260;137990;-68
2023/12/24 07:18:50;;;;;;;11.00;4.30;;;;;;;0.25;86.97;98720.05;102702;1267;97789;-68
2023/12/24 07:21:17;;;;;;;7.80;4.50;;;;;;;0.30;86.92;98719.95;102555;1261;138191;-68
2023/12/24 07:23:44;;;;;;;9.00;4.00;;;;;;;0.33;86.95;98712.91;102716;1265;97785;-68
2023/12/24 07:26:11;;;;;;;13.50;4.70;;;;;;;0.33;86.77;98711.02;102698;1261;111339;-68
2023/12/24 07:28:38;;;;;;;11.90;4.70;;;;;;;0.34;86.73;98707.08;102575;1263;138183;-68
2023/12/24 07:31:05;;;;;;;11.60;4.70;;;;;;;0.38;86.96;98705.66;102720;1264;98316;-68
2023/12/24 07:33:32;;;;;;;12.70;5.30;;;;;;;0.40;86.98;98708.70;102624;1264;138605;-68
2023/12/24 07:35:59;;;;;;;10.60;5.10;;;;;;;0.43;86.84;98709.85;102633;1267;96502;-68
2023/12/24 07:38:29;;;;;;;8.90;4.60;;;;;;;0.45;86.77;98712.56;102708;1264;110575;-68
2023/12/24 07:40:57;;;;;;;9.30;4.80;;;;;;;0.48;86.80;98716.61;102540;1267;137843;-69
2023/12/24 07:43:24;;;;;;;12.60;5.20;;;;;;;0.50;86.93;98721.87;102661;1261;98399;-69
2023/12/24 07:45:52;;;;;;;10.20;5.40;;;;;;;0.54;86.95;98728.99;102556;1260;138016;-68
2023/12/24 07:48:19;;;;;;;11.30;5.90;;;;;;;0.60;86.92;98730.61;102764;1264;97768;-68
2023/12/24 07:50:46;;;;;;;11.40;5.50;;;;;;;0.65;86.91;98730.70;102526;1267;138295;-68
2023/12/24 07:53:12;;;;;;;12.80;5.90;;;;;;;0.67;86.77;98733.05;102665;1266;107122;-69
2023/12/24 07:55:40;;;;;;;11.10;5.70;;;;;;;0.71;86.89;98730.42;102685;1264;98493;-67
2023/12/24 07:58:07;;;;;;;15.30;6.10;;;;;;;0.78;87.03;98727.57;102581;1264;138264;-69
2023/12/24 08:00:34;;;;;;;12.00;5.90;;;;;;;0.85;86.95;98730.02;102634;1261;97825;-68
2023/12/24 08:03:01;;;;;;;13.60;6.10;;;;;;;0.91;86.93;98728.20;102636;1261;137762;-67
2023/12/24 08:05:28;;;;;;;14.30;6.30;;;;;;;0.95;86.72;98722.84;104177;1264;108255;-67
2023/12/24 08:07:55;;;;;;;10.90;6.40;;;;;;;0.95;86.46;98726.59;103057;1261;97717;-68
2023/12/24 08:10:22;;;;;;;14.90;7.40;;;;;;;0.98;86.66;98733.71;102553;1261;137573;-67
2023/12/24 08:12:49;;;;;;;16.30;7.40;;;;;;;1.00;86.47;98727.69;102666;1265;98598;-68
2023/12/24 08:15:22;;;;;;;14.40;7.10;;;;;;;1.01;86.50;98729.05;102564;1264;138234;-68
2023/12/24 08:17:49;;;;;;;14.00;7.10;;;;;;;1.02;86.64;98727.83;102656;1264;107869;-67
2023/12/24 08:20:20;;;;;;;15.10;7.10;;;;;;;1.06;86.69;98729.63;102746;1262;97703;-67
2023/12/24 08:22:48;;;;;;;10.20;6.20;;;;;;;1.08;86.50;98728.92;102577;1264;140224;-68
2023/12/24 08:25:14;;;;;;;10.10;6.40;;;;;;;1.11;86.70;98727.67;102754;1264;97676;-67
2023/12/24 08:27:41;;;;;;;12.40;6.40;;;;;;;1.15;86.76;98727.09;102567;1265;138101;-68
2023/12/24 08:30:11;;;;;;;13.80;6.20;;;;;;;1.19;86.80;98728.71;102681;1270;106841;-69
2023/12/24 08:32:37;;;;;;;10.00;5.60;;;;;;;1.26;86.85;98733.90;104224;1264;95571;-68
2023/12/24 08:35:05;;;;;;;14.40;6.20;;;;;;;1.32;86.68;98738.42;104226;1264;106714;-67
2023/12/24 08:37:32;;;;;;;14.50;7.00;;;;;;;1.37;86.67;98737.63;102867;1266;97723;-68
2023/12/24 08:39:58;;;;;;;12.70;6.00;;;;;;;1.45;86.70;98736.79;103133;1261;140810;-68
2023/12/24 08:42:25;;;;;;;14.60;6.70;;;;;;;1.54;86.64;98743.80;102671;1264;108559;-68
2023/12/24 08:44:52;;;;;;;12.10;7.00;;;;;;;1.62;86.73;98744.48;102630;1264;138918;-67
2023/12/24 08:47:19;;;;;;;12.20;6.40;;;;;;;1.70;86.48;98747.59;102655;1264;106943;-68
2023/12/24 08:49:46;;;;;;;13.70;6.90;;;;;;;1.76;86.35;98748.32;102677;1264;98365;-68
2023/12/24 08:52:13;;;;;;;13.80;7.40;;;;;;;1.79;86.14;98750.83;102548;1267;137977;-68
2023/12/24 08:54:40;;;;;;;12.60;7.10;;;;;;;1.85;86.03;98756.89;102698;1264;107383;-68
2023/12/24 08:57:08;;;;;;;14.90;7.10;;;;;;;1.93;86.02;98760.14;102625;1264;137678;-68
2023/12/24 08:59:35;;;;;;;15.00;7.90;;;;;;;1.92;85.57;98759.98;102749;1267;107444;-70
2023/12/24 09:02:02;;;;;;;14.80;7.70;;;;;;;1.90;85.57;98759.16;102648;1261;97729;-69
2023/12/24 09:04:29;;;;;;;15.50;7.60;;;;;;;1.91;85.39;98757.27;102562;1267;138119;-68
2023/12/24 09:06:55;;;;;;;16.10;7.80;;;;;;;1.90;85.44;98752.31;102663;1264;107959;-68
2023/12/24 09:09:22;;;;;;;12.80;7.10;;;;;;;1.91;85.43;98751.59;102609;1264;138447;-68
2023/12/24 09:11:49;;;;;;;12.80;7.20;;;;;;;1.94;85.64;98752.73;102644;1264;107555;-68
2023/12/24 09:14:16;;;;;;;13.50;7.60;;;;;;;2.01;85.42;98749.02;102726;1264;97875;-68
2023/12/24 09:16:43;;;;;;;14.00;7.30;;;;;;;2.05;85.54;98743.77;102622;1266;138029;-69
2023/12/24 09:19:09;;;;;;;17.40;8.00;;;;;;;2.11;85.62;98736.92;102721;1264;108788;-69
2023/12/24 09:21:36;;;;;;;15.10;7.60;;;;;;;2.22;85.61;98743.90;102562;1266;139802;-69
2023/12/24 09:24:06;;;;;;;15.80;8.00;;;;;;;2.30;85.50;98742.85;102827;1264;108034;-68
2023/12/24 09:26:32;;;;;;;13.60;7.90;;;;;;;2.37;85.47;98740.82;102700;1264;97840;-69
2023/12/24 09:28:59;;;;;;;16.00;8.00;;;;;;;2.43;85.16;98737.08;102672;1264;139021;-68
2023/12/24 09:31:27;;;;;;;16.40;8.50;;;;;;;2.47;84.97;98733.38;102654;1265;107059;-68
2023/12/24 09:33:54;;;;;;;17.00;8.70;;;;;;;2.50;84.76;98734.31;102579;1265;138270;-67
2023/12/24 09:36:20;;;;;;;15.80;8.30;;;;;;;2.54;84.81;98735.43;102655;1265;107623;-68
2023/12/24 09:38:48;;;;;;;14.70;8.50;;;;;;;2.60;84.87;98737.00;102554;1266;137682;-69
2023/12/24 09:41:18;;;;;;;18.70;9.00;;;;;;;2.61;84.79;98728.05;102740;1266;110678;-67
2023/12/24 09:43:44;;;;;;;16.10;9.30;;;;;;;2.64;84.42;98733.83;102731;1266;106935;-69
2023/12/24 09:46:11;;;;;;;15.40;8.20;;;;;;;2.59;84.10;98732.75;102601;1266;137571;-68
2023/12/24 09:48:38;;;;;;;12.90;7.30;;;;;;;2.58;84.34;98726.41;102717;1267;107300;-70
2023/12/24 09:51:08;;;;;;;13.40;7.50;;;;;;;2.61;84.26;98724.79;102575;1264;138397;-68
2023/12/24 09:53:35;;;;;;;12.60;6.70;;;;;;;2.60;83.92;98714.36;102603;1263;110863;-69
2023/12/24 09:56:02;;;;;;;13.30;7.10;;;;;;;2.62;84.32;98716.19;102644;1264;106473;-69
2023/12/24 09:58:30;;;;;;;16.10;7.60;;;;;;;2.66;84.29;98711.80;102543;1266;138642;-69
2023/12/24 10:00:57;;;;;;;17.70;7.80;;;;;;;2.69;84.39;98713.27;102692;1266;107712;-69
2023/12/24 10:03:23;;;;;;;15.50;7.90;;;;;;;2.73;84.32;98711.97;102505;1267;137832;-69
2023/12/24 10:06:04;;;;;;;17.10;8.20;;;;;;;2.73;84.15;98710.27;102697;1265;110388;-69
2023/12/24 10:08:32;;;;;;;11.90;8.00;;;;;;;2.72;84.12;98713.20;102657;1261;107172;-68
2023/12/24 10:11:11;;;;;;;19.40;9.20;;;;;;;2.71;84.03;98710.14;102615;1266;139260;-69
2023/12/24 10:13:38;;;;;;;14.00;8.20;;;;;;;2.68;83.92;98709.52;102640;1266;106995;-69
2023/12/24 10:16:06;;;;;;;15.40;8.10;;;;;;;2.67;84.09;98712.45;102391;1266;138330;-69
2023/12/24 10:18:33;;;;;;;16.80;7.70;;;;;;;2.67;84.05;98707.98;102739;1260;110353;-69
2023/12/24 10:21:05;;;;;;;14.20;7.80;;;;;;;2.66;83.97;98710.95;102482;1267;138840;-70
2023/12/24 10:23:32;;;;;;;12.20;7.70;;;;;;;2.66;83.99;98707.33;102606;1267;97716;-69
2023/12/24 10:26:04;;;;;;;14.20;8.70;;;;;;;2.68;84.05;98708.32;102713;1264;107834;-69
2023/12/24 10:28:32;;;;;;;16.00;9.40;;;;;;;2.68;83.94;98708.99;102565;1267;137498;-69
2023/12/24 10:31:08;;;;;;;18.30;10.10;;;;;;;2.67;83.79;98710.91;102671;1265;112311;-69
2023/12/24 10:33:35;;;;;;;16.90;9.30;;;;;;;2.69;83.79;98714.14;104068;1261;139393;-69
2023/12/24 10:36:03;;;;;;;15.70;10.00;;;;;;;2.64;83.57;98707.92;104206;1260;95782;-68
2023/12/24 10:38:30;;;;;;;15.40;10.30;;;;;;;2.59;83.73;98705.12;104232;1260;107461;-68
2023/12/24 10:40:57;;;;;;;15.80;9.60;;;;;;;2.57;83.79;98702.42;103321;1261;1002825;-68
2023/12/24 10:43:24;;;;;;;18.30;10.10;;;;;;;2.54;83.88;98699.77;104213;1260;111831;-69
2023/12/24 10:45:51;;;;;;;14.40;9.00;;;;;;;2.52;83.75;98692.45;104006;1261;138703;-68
2023/12/24 10:48:17;;;;;;;14.40;8.60;;;;;;;2.51;83.99;98686.96;104166;1261;96027;-69
2023/12/24 10:50:45;;;;;;;13.40;9.20;;;;;;;2.56;84.11;98680.66;103607;1260;138169;-69
2023/12/24 10:53:13;;;;;;;14.70;9.00;;;;;;;2.57;83.90;98677.38;102742;1266;97846;-69
2023/12/24 10:55:42;;;;;;;14.20;8.90;;;;;;;2.61;84.07;98677.97;102680;1265;110690;-70
2023/12/24 10:58:18;;;;;;;13.00;9.60;;;;;;;2.67;84.01;98672.98;101778;1266;1003436;-70
2023/12/24 11:00:45;;;;;;;16.60;10.30;;;;;;;2.71;84.01;98670.52;102643;1266;98385;-70
2023/12/24 11:03:12;;;;;;;17.60;10.90;;;;;;;2.75;83.88;98665.07;102749;1257;138055;-68
2023/12/24 11:05:52;;;;;;;16.70;11.00;;;;;;;2.79;83.84;98664.80;102873;1257;97910;-68
2023/12/24 11:08:32;;;;;;;17.40;11.30;;;;;;;2.78;83.56;98663.45;102859;1261;111428;-69
2023/12/24 11:11:03;;;;;;;15.30;11.00;;;;;;;2.74;83.62;98662.70;102763;1258;137737;-69
2023/12/24 11:13:47;;;;;;;17.50;11.40;;;;;;;2.72;83.60;98655.20;102875;1263;98348;-69
2023/12/24 11:16:34;;;;;;;19.10;12.10;;;;;;;2.72;83.54;98658.27;102755;1257;138854;-68
2023/12/24 11:18:59;;;;;;;;;;;;;;;2.69;83.56;98659.90;102909;1264;97910;-68
2023/12/24 11:21:26;;;;;;;15.30;11.00;;;;;;;2.67;83.52;98663.39;100600;1260;1003580;-68